createdAt,value
2019-04-01T00:00:51.550Z,9.63
2019-04-01T00:03:59.273Z,17.53
2019-04-01T00:07:06.345Z,16.13
2019-04-01T00:10:13.605Z,12.17
2019-04-01T00:13:21.314Z,12.60
2019-04-01T00:16:28.486Z,10.17
2019-04-01T00:19:35.479Z,11.03
2019-04-01T00:22:42.838Z,10.77
2019-04-01T00:25:49.795Z,14.47
2019-04-01T00:28:56.930Z,12.87
2019-04-01T00:32:04.097Z,13.57
2019-04-01T00:35:12.213Z,11.23
2019-04-01T00:41:25.424Z,9.43
2019-04-01T00:47:39.285Z,11.77
2019-04-01T00:50:46.304Z,12.37
2019-04-01T00:53:53.318Z,12.93
2019-04-01T00:57:00.600Z,9.33
2019-04-01T01:00:08.844Z,10.50
2019-04-01T01:03:16.333Z,13.07
2019-04-01T01:06:24.286Z,11.90
2019-04-01T01:09:31.546Z,15.33
2019-04-01T01:12:40.407Z,13.63
2019-04-01T01:15:47.369Z,12.43
2019-04-01T01:18:54.288Z,10.80
2019-04-01T01:22:01.326Z,13.37
2019-04-01T01:25:08.316Z,13.13
2019-04-01T01:31:22.093Z,11.90
2019-04-01T01:34:29.360Z,8.57
2019-04-01T01:40:43.040Z,9.73
2019-04-01T01:43:51.738Z,11.80
2019-04-01T01:46:59.950Z,10.57
2019-04-01T01:50:08.582Z,9.50
2019-04-01T01:53:15.607Z,15.70
2019-04-01T01:56:22.573Z,10.07
2019-04-01T01:59:30.068Z,8.87
2019-04-01T02:02:36.960Z,10.93
2019-04-01T02:05:43.946Z,10.87
2019-04-01T02:08:50.989Z,13.77
2019-04-01T02:11:58.492Z,10.53
2019-04-01T02:18:14.280Z,9.70
2019-04-01T02:21:21.810Z,12.33
2019-04-01T02:24:29.322Z,11.47
2019-04-01T02:27:36.838Z,13.20
2019-04-01T02:30:44.268Z,10.43
2019-04-01T02:33:51.556Z,10.07
2019-04-01T02:36:58.722Z,11.40
2019-04-01T02:40:07.568Z,14.37
2019-04-01T02:43:16.310Z,10.43
2019-04-01T02:46:25.264Z,7.80
2019-04-01T02:49:32.334Z,12.33
2019-04-01T02:55:46.290Z,13.73
2019-04-01T02:58:53.354Z,9.93
2019-04-01T03:02:00.439Z,15.90
2019-04-01T03:05:08.281Z,9.77
2019-04-01T03:08:15.261Z,13.80
2019-04-01T03:11:22.377Z,14.80
2019-04-01T03:17:35.696Z,10.87
2019-04-01T03:20:42.848Z,9.90
2019-04-01T03:23:50.315Z,10.83
2019-04-01T03:26:58.059Z,8.33
2019-04-01T03:30:05.814Z,9.17
2019-04-01T03:33:12.925Z,10.63
2019-04-01T03:36:20.602Z,8.10
2019-04-01T03:39:27.726Z,9.20
2019-04-01T03:42:35.548Z,11.70
2019-04-01T03:45:43.132Z,9.93
2019-04-01T03:48:50.258Z,9.63
2019-04-01T03:51:57.434Z,10.47
2019-04-01T03:58:11.252Z,10.30
2019-04-01T04:01:18.469Z,8.13
2019-04-01T04:04:25.738Z,7.93
2019-04-01T04:07:33.100Z,11.20
2019-04-01T04:10:41.309Z,7.67
2019-04-01T04:13:48.685Z,14.37
2019-04-01T04:16:55.630Z,11.77
2019-04-01T04:20:02.756Z,11.97
2019-04-01T04:23:09.837Z,7.07
2019-04-01T04:26:16.970Z,15.57
2019-04-01T04:29:24.364Z,12.27
2019-04-01T04:32:31.348Z,10.50
2019-04-01T04:38:44.315Z,13.75
2019-04-01T04:41:51.655Z,10.97
2019-04-01T04:48:07.560Z,10.77
2019-04-01T04:51:15.279Z,9.23
2019-04-01T04:54:22.997Z,8.93
2019-04-01T04:57:31.639Z,9.93
2019-04-01T05:00:38.884Z,12.97
2019-04-01T05:03:46.297Z,9.50
2019-04-01T05:06:53.403Z,8.83
2019-04-01T05:10:01.979Z,13.60
2019-04-01T05:13:09.278Z,6.17
2019-04-01T05:16:16.833Z,10.20
2019-04-01T05:19:24.295Z,14.37
2019-04-01T05:22:32.207Z,8.03
2019-04-01T05:25:39.378Z,10.17
2019-04-01T05:28:46.933Z,20.20
2019-04-01T05:31:53.903Z,8.37
2019-04-01T05:35:01.440Z,11.83
2019-04-01T05:41:16.400Z,9.80
2019-04-01T05:50:37.268Z,10.07
2019-04-01T05:53:44.453Z,10.97
2019-04-01T05:56:52.305Z,15.30
2019-04-01T05:59:59.752Z,19.07
2019-04-01T06:03:06.889Z,22.50
2019-04-01T06:06:15.283Z,15.30
2019-04-01T06:09:22.417Z,7.60
2019-04-01T06:12:29.777Z,7.10
2019-04-01T06:15:37.641Z,8.00
2019-04-01T06:18:44.753Z,4.43
2019-04-01T06:21:51.878Z,9.80
2019-04-01T06:24:59.263Z,14.37
2019-04-01T06:28:06.317Z,18.33
2019-04-01T06:31:13.869Z,8.53
2019-04-01T06:34:21.265Z,8.83
2019-04-01T06:37:28.548Z,19.73
2019-04-01T06:40:36.000Z,12.10
2019-04-01T06:43:43.250Z,8.03
2019-04-01T06:46:50.282Z,7.00
2019-04-01T06:49:59.609Z,7.23
2019-04-01T06:53:06.922Z,10.37
2019-04-01T06:56:14.289Z,7.10
2019-04-01T06:59:22.945Z,10.87
2019-04-01T07:02:31.266Z,8.20
2019-04-01T07:05:38.719Z,9.87
2019-04-01T07:08:45.696Z,5.27
2019-04-01T07:11:53.389Z,11.53
2019-04-01T07:15:01.751Z,7.30
2019-04-01T07:18:09.304Z,8.50
2019-04-01T07:24:23.491Z,7.53
2019-04-01T07:27:31.642Z,11.93
2019-04-01T07:30:41.764Z,7.40
2019-04-01T07:33:48.451Z,11.00
2019-04-01T07:36:55.427Z,9.73
2019-04-01T07:40:02.890Z,11.90
2019-04-01T07:43:14.736Z,10.03
2019-04-01T07:46:20.369Z,9.47
2019-04-01T07:49:27.440Z,7.10
2019-04-01T07:52:34.446Z,10.47
2019-04-01T07:55:42.250Z,9.30
2019-04-01T07:58:49.691Z,8.10
2019-04-01T08:01:57.259Z,7.33
2019-04-01T08:05:04.801Z,8.97
2019-04-01T08:08:12.783Z,10.63
2019-04-01T08:11:20.032Z,8.63
2019-04-01T08:14:27.256Z,7.60
2019-04-01T08:17:34.638Z,9.23
2019-04-01T08:20:41.677Z,12.37
2019-04-01T08:23:48.945Z,10.00
2019-04-01T08:26:56.277Z,9.27
2019-04-01T08:30:05.367Z,8.83
2019-04-01T08:36:18.734Z,8.57
2019-04-01T08:39:27.256Z,11.93
2019-04-01T08:42:34.263Z,6.90
2019-04-01T08:45:41.283Z,7.80
2019-04-01T08:48:48.630Z,9.60
2019-04-01T08:51:55.864Z,13.27
2019-04-01T08:55:05.241Z,14.97
2019-04-01T08:58:12.567Z,6.40
2019-04-01T09:01:34.246Z,8.23
2019-04-01T09:04:28.731Z,11.47
2019-04-01T09:07:35.866Z,7.03
2019-04-01T09:10:43.965Z,6.87
2019-04-01T09:13:51.702Z,7.10
2019-04-01T09:16:59.127Z,8.03
2019-04-01T09:20:07.313Z,7.00
2019-04-01T09:23:14.969Z,9.53
2019-04-01T09:26:21.976Z,3.80
2019-04-01T09:29:29.270Z,5.27
2019-04-01T09:32:36.370Z,11.30
2019-04-01T09:38:49.760Z,6.73
2019-04-01T09:41:58.255Z,13.30
2019-04-01T09:45:08.279Z,13.10
2019-04-01T09:48:15.415Z,11.37
2019-04-01T09:51:23.301Z,13.97
2019-04-01T09:54:30.410Z,7.83
2019-04-01T10:00:43.426Z,7.20
2019-04-01T10:04:40.717Z,11.23
2019-04-01T10:07:47.596Z,10.80
2019-04-01T10:10:54.685Z,9.90
2019-04-01T10:14:01.945Z,11.93
2019-04-01T10:17:09.463Z,13.90
2019-04-01T10:20:17.313Z,13.87
2019-04-01T10:26:31.364Z,11.00
2019-04-01T10:29:38.866Z,12.03
2019-04-01T10:32:46.359Z,9.10
2019-04-01T10:35:53.882Z,11.73
2019-04-01T10:39:01.653Z,16.13
2019-04-01T10:42:09.957Z,11.57
2019-04-01T10:45:17.555Z,11.63
2019-04-01T10:48:24.642Z,12.37
2019-04-01T10:51:33.055Z,12.53
2019-04-01T10:54:41.010Z,12.23
2019-04-01T10:57:48.436Z,14.70
2019-04-01T11:00:55.435Z,11.33
2019-04-01T11:04:04.459Z,13.10
2019-04-01T11:07:11.927Z,12.43
2019-04-01T11:10:20.251Z,11.60
2019-04-01T11:13:28.052Z,15.87
2019-04-01T11:16:36.537Z,15.67
2019-04-01T11:19:43.694Z,14.17
2019-04-01T11:22:51.263Z,16.30
2019-04-01T11:25:59.320Z,14.67
2019-04-01T11:29:06.892Z,15.27
2019-04-01T11:32:14.210Z,15.37
2019-04-01T11:35:21.549Z,15.57
2019-04-01T11:38:29.578Z,13.77
2019-04-01T11:41:37.493Z,17.47
2019-04-01T11:44:44.985Z,14.80
2019-04-01T11:47:53.334Z,14.10
2019-04-01T11:51:01.407Z,16.90
2019-04-01T11:54:10.051Z,19.17
2019-04-01T11:57:17.760Z,16.90
2019-04-01T12:00:26.255Z,18.97
2019-04-01T12:03:34.137Z,15.97
2019-04-01T12:06:42.022Z,15.97
2019-04-01T12:09:52.254Z,19.63
2019-04-01T12:12:59.915Z,17.83
2019-04-01T12:16:09.258Z,16.93
2019-04-01T12:19:18.191Z,16.93
2019-04-01T12:22:25.972Z,27.20
2019-04-01T12:31:47.355Z,15.93
2019-04-01T12:34:54.909Z,16.37
2019-04-01T12:38:02.345Z,19.10
2019-04-01T12:41:10.088Z,16.50
2019-04-01T12:44:18.501Z,14.07
2019-04-01T12:47:25.809Z,17.93
2019-04-01T12:50:33.246Z,14.33
2019-04-01T12:53:40.751Z,19.17
2019-04-01T12:56:48.258Z,14.73
2019-04-01T12:59:55.647Z,13.80
2019-04-01T13:03:02.967Z,12.13
2019-04-01T13:06:11.440Z,13.73
2019-04-01T13:09:18.924Z,13.70
2019-04-01T13:12:28.918Z,13.07
2019-04-01T13:15:36.281Z,15.63
2019-04-01T13:18:44.367Z,19.00
2019-04-01T13:25:02.401Z,19.60
2019-04-01T13:28:10.103Z,21.07
2019-04-01T13:31:19.317Z,19.20
2019-04-01T13:37:33.839Z,18.53
2019-04-01T13:40:41.764Z,14.67
2019-04-01T13:43:49.974Z,18.33
2019-04-01T13:46:58.445Z,17.03
2019-04-01T13:50:07.413Z,16.77
2019-04-01T13:53:15.339Z,19.77
2019-04-01T13:59:30.110Z,16.70
2019-04-01T14:02:37.413Z,15.57
2019-04-01T14:05:46.252Z,19.67
2019-04-01T14:08:54.333Z,13.47
2019-04-01T14:12:02.324Z,14.07
2019-04-01T14:15:10.277Z,15.60
2019-04-01T14:18:18.526Z,21.40
2019-04-01T14:21:27.725Z,19.73
2019-04-01T14:24:36.053Z,24.43
2019-04-01T14:27:43.509Z,23.07
2019-04-01T14:30:51.471Z,17.37
2019-04-01T14:34:01.293Z,18.77
2019-04-01T14:37:09.910Z,25.43
2019-04-01T14:40:17.458Z,17.93
2019-04-01T14:43:25.715Z,19.23
2019-04-01T14:46:32.966Z,20.60
2019-04-01T14:49:40.585Z,13.83
2019-04-01T14:52:47.958Z,16.60
2019-04-01T14:55:55.471Z,14.17
2019-04-01T14:59:02.644Z,14.70
2019-04-01T15:02:12.776Z,14.80
2019-04-01T15:05:20.927Z,15.93
2019-04-01T15:08:28.254Z,15.80
2019-04-01T15:11:35.650Z,16.50
2019-04-01T15:14:43.170Z,20.63
2019-04-01T15:20:59.308Z,17.27
2019-04-01T15:24:06.881Z,16.10
2019-04-01T15:27:16.441Z,16.73
2019-04-01T15:30:25.001Z,18.33
2019-04-01T15:33:33.621Z,18.63
2019-04-01T15:36:41.336Z,19.60
2019-04-01T15:39:49.685Z,16.67
2019-04-01T15:42:58.589Z,23.00
2019-04-01T15:46:06.578Z,16.37
2019-04-01T15:49:15.569Z,17.17
2019-04-01T15:52:24.324Z,14.57
2019-04-01T15:58:40.236Z,15.90
2019-04-01T16:04:55.332Z,20.90
2019-04-01T16:11:11.772Z,16.73
2019-04-01T16:14:19.607Z,23.07
2019-04-01T16:17:27.364Z,20.03
2019-04-01T16:23:42.245Z,20.77
2019-04-01T16:26:51.322Z,22.10
2019-04-01T16:33:05.298Z,17.93
2019-04-01T16:36:13.227Z,15.40
2019-04-01T16:39:21.342Z,21.67
2019-04-01T16:42:28.695Z,18.70
2019-04-01T16:45:37.277Z,17.33
2019-04-01T16:48:46.669Z,19.57
2019-04-01T16:51:54.660Z,14.30
2019-04-01T16:55:03.279Z,16.17
2019-04-01T16:58:10.644Z,16.60
2019-04-01T17:01:18.925Z,19.80
2019-04-01T17:04:26.652Z,19.67
2019-04-01T17:07:34.999Z,20.20
2019-04-01T17:10:42.332Z,21.53
2019-04-01T17:13:49.685Z,19.50
2019-04-01T17:16:56.890Z,23.30
2019-04-01T17:20:07.887Z,18.87
2019-04-01T17:23:15.877Z,16.33
2019-04-01T17:26:23.431Z,18.83
2019-04-01T17:29:31.933Z,14.23
2019-04-01T17:32:40.277Z,15.33
2019-04-01T17:35:48.279Z,12.57
2019-04-01T17:45:22.793Z,15.73
2019-04-01T17:48:30.141Z,14.77
2019-04-01T17:51:38.367Z,13.63
2019-04-01T17:54:48.177Z,12.90
2019-04-01T18:01:03.976Z,13.03
2019-04-01T18:04:11.286Z,12.97
2019-04-01T18:07:20.314Z,14.43
2019-04-01T18:13:37.814Z,10.37
2019-04-01T18:16:45.994Z,12.33
2019-04-01T18:19:53.926Z,17.67
2019-04-01T18:23:01.572Z,10.10
2019-04-01T18:26:09.666Z,11.20
2019-04-01T18:29:18.680Z,14.43
2019-04-01T18:32:27.633Z,12.13
2019-04-01T18:35:35.368Z,13.57
2019-04-01T18:38:42.672Z,11.33
2019-04-01T18:41:52.982Z,14.07
2019-04-01T18:45:00.265Z,11.60
2019-04-01T18:48:09.270Z,15.43
2019-04-01T18:51:20.177Z,11.90
2019-04-01T18:54:26.058Z,12.40
2019-04-01T18:57:33.523Z,22.13
2019-04-01T19:00:41.300Z,18.50
2019-04-01T19:03:48.891Z,16.73
2019-04-01T19:06:56.296Z,14.63
2019-04-01T19:10:06.338Z,16.33
2019-04-01T19:13:14.460Z,13.30
2019-04-01T19:16:23.132Z,12.40
2019-04-01T19:19:31.092Z,13.87
2019-04-01T19:22:38.714Z,12.03
2019-04-01T19:25:46.273Z,14.97
2019-04-01T19:28:53.528Z,14.67
2019-04-01T19:32:02.585Z,10.87
2019-04-01T19:35:12.530Z,18.47
2019-04-01T19:38:21.307Z,20.87
2019-04-01T19:41:29.321Z,28.07
2019-04-01T19:47:43.402Z,11.63
2019-04-01T19:50:50.518Z,15.63
2019-04-01T19:53:59.504Z,12.97
2019-04-01T19:57:06.474Z,12.80
2019-04-01T20:00:27.026Z,18.80
2019-04-01T20:03:24.543Z,15.47
2019-04-01T20:06:35.460Z,13.00
2019-04-01T20:09:46.099Z,14.00
2019-04-01T20:12:53.011Z,17.23
2019-04-01T20:16:01.469Z,18.03
2019-04-01T20:19:09.008Z,13.90
2019-04-01T20:22:16.430Z,16.87
2019-04-01T20:25:24.752Z,14.13
2019-04-01T20:28:32.758Z,14.67
2019-04-01T20:31:40.675Z,12.83
2019-04-01T20:34:56.949Z,16.73
2019-04-01T20:37:57.352Z,12.67
2019-04-01T20:41:07.286Z,11.70
2019-04-01T20:44:14.896Z,12.97
2019-04-01T20:47:22.293Z,17.47
2019-04-01T20:50:29.913Z,13.43
2019-04-01T20:53:37.286Z,18.93
2019-04-01T20:56:44.274Z,15.70
2019-04-01T20:59:52.252Z,13.03
2019-04-01T21:03:01.297Z,18.17
2019-04-01T21:06:08.310Z,22.43
2019-04-01T21:12:24.348Z,19.60
2019-04-01T21:18:38.942Z,19.97
2019-04-01T21:21:46.658Z,17.87
2019-04-01T21:24:55.256Z,22.10
2019-04-01T21:28:02.760Z,19.07
2019-04-01T21:31:10.360Z,13.83
2019-04-01T21:34:17.964Z,16.00
2019-04-01T21:37:25.366Z,15.27
2019-04-01T21:40:32.569Z,16.00
2019-04-01T21:43:39.750Z,18.27
2019-04-01T21:46:47.023Z,18.17
2019-04-01T21:49:54.294Z,13.83
2019-04-01T21:53:02.184Z,15.93
2019-04-01T21:56:10.418Z,18.70
2019-04-01T21:59:18.068Z,15.35
2019-04-01T22:02:35.583Z,14.93
2019-04-01T22:05:34.074Z,12.80
2019-04-01T22:08:41.334Z,15.47
2019-04-01T22:11:49.260Z,18.33
2019-04-01T22:14:56.421Z,16.15
2019-04-01T22:18:03.495Z,16.75
2019-04-01T22:21:11.605Z,15.73
2019-04-01T22:24:19.496Z,18.50
2019-04-01T22:30:33.339Z,28.43
2019-04-01T22:33:40.668Z,29.97
2019-04-01T22:36:47.739Z,20.53
2019-04-01T22:39:55.115Z,20.37
2019-04-01T22:43:02.313Z,17.33
2019-04-01T22:46:09.406Z,14.17
2019-04-01T22:49:16.605Z,12.50
2019-04-01T22:52:23.528Z,15.00
2019-04-01T22:55:30.735Z,15.57
2019-04-01T22:58:37.939Z,16.23
2019-04-01T23:01:45.352Z,11.87
2019-04-01T23:04:52.967Z,14.60
2019-04-01T23:08:02.248Z,10.73
2019-04-01T23:14:16.295Z,11.17
2019-04-01T23:17:24.355Z,10.37
2019-04-01T23:20:33.291Z,17.60
2019-04-01T23:23:40.327Z,11.43
2019-04-01T23:29:54.026Z,9.20
2019-04-01T23:33:01.302Z,13.80
2019-04-01T23:36:08.280Z,8.13
2019-04-01T23:39:15.539Z,9.90
2019-04-01T23:42:22.904Z,8.60
2019-04-01T23:45:30.301Z,9.87
2019-04-01T23:48:38.257Z,10.23
2019-04-01T23:51:45.281Z,6.70
2019-04-01T23:54:52.300Z,14.27
